Time;durP1;ratioP1;P1;durP2;ratioP2;P2;SDS_P1;SDS_P2;PMS_P1;PMS_P2;Temp;Humidity;BMP_temperature;BMP_pressure;BME280_temperature;BME280_humidity;BME280_pressure;Samples;Min_cycle;Max_cycle;Signal;HPM_P1;HPM_P2
2023/11/28 00:02:20;;;;;;;5.28;3.08;;;;;;;2.35;65.53;97464.63;10437724;28;20056;-64
2023/11/28 00:07:23;;;;;;;5.97;2.97;;;;;;;2.26;65.63;97461.81;10437946;28;20320;-64
2023/11/28 00:12:25;;;;;;;4.95;2.92;;;;;;;2.17;65.81;97465.84;10418872;28;20420;-65
2023/11/28 00:17:27;;;;;;;6.03;3.05;;;;;;;2.21;65.95;97465.53;10437270;28;20452;-64
2023/11/28 00:22:29;;;;;;;6.78;2.50;;;;;;;2.26;65.80;97457.50;10436957;28;20068;-66
2023/11/28 00:27:32;;;;;;;4.28;2.20;;;;;;;2.36;65.76;97461.13;10438298;28;20044;-65
2023/11/28 00:32:34;;;;;;;3.85;2.42;;;;;;;2.40;65.67;97461.75;10437314;28;20124;-66
2023/11/28 00:37:36;;;;;;;5.43;3.00;;;;;;;2.34;65.51;97464.75;10403522;28;20045;-65
2023/11/28 00:42:38;;;;;;;4.22;2.58;;;;;;;2.28;65.84;97460.78;10436113;28;20053;-65
2023/11/28 00:47:43;;;;;;;6.18;2.88;;;;;;;2.29;65.70;97457.31;10436958;28;20408;-64
2023/11/28 00:52:46;;;;;;;5.03;2.30;;;;;;;2.23;65.76;97470.59;10402218;28;20045;-65
2023/11/28 00:57:48;;;;;;;4.10;2.53;;;;;;;2.22;65.75;97479.25;10435530;28;20045;-65
2023/11/28 01:02:50;;;;;;;3.92;2.15;;;;;;;2.19;65.75;97482.03;10385554;28;20508;-65
2023/11/28 01:07:52;;;;;;;4.68;2.42;;;;;;;2.19;65.81;97480.25;10436190;28;20110;-65
2023/11/28 01:12:54;;;;;;;3.83;2.47;;;;;;;2.26;65.72;97488.44;10435890;28;20053;-64
2023/11/28 01:17:56;;;;;;;4.57;2.25;;;;;;;2.23;65.78;97489.44;10416888;28;20115;-65
2023/11/28 01:22:59;;;;;;;4.35;2.08;;;;;;;2.18;65.77;97508.72;10418053;28;20889;-65
2023/11/28 01:28:02;;;;;;;3.75;1.98;;;;;;;2.14;65.96;97504.69;10416741;28;20509;-64
2023/11/28 01:33:04;;;;;;;4.90;2.10;;;;;;;2.19;65.82;97513.78;10424578;28;20052;-64
2023/11/28 01:38:06;;;;;;;4.70;2.40;;;;;;;2.20;65.77;97515.44;10417571;28;20132;-64
2023/11/28 01:43:08;;;;;;;3.38;1.90;;;;;;;2.09;65.99;97524.81;10433475;28;20493;-65
2023/11/28 01:48:10;;;;;;;3.15;1.65;;;;;;;2.03;66.32;97535.50;10416998;28;20044;-64
2023/11/28 01:53:12;;;;;;;3.70;1.88;;;;;;;2.13;66.15;97536.56;10433484;28;20053;-64
2023/11/28 01:58:15;;;;;;;3.17;1.63;;;;;;;2.15;65.98;97553.59;10433754;28;20123;-64
2023/11/28 02:03:19;;;;;;;3.00;1.75;;;;;;;2.22;65.93;97559.19;10415650;28;20195;-64
2023/11/28 02:08:22;;;;;;;2.88;1.48;;;;;;;2.30;65.81;97564.69;10433770;28;20305;-64
2023/11/28 02:13:24;;;;;;;3.33;1.98;;;;;;;2.32;65.66;97574.91;10398608;28;20052;-65
2023/11/28 02:18:26;;;;;;;3.05;1.65;;;;;;;2.15;65.65;97583.72;10433095;28;20045;-64
2023/11/28 02:23:28;;;;;;;1.65;1.27;;;;;;;2.07;65.77;97601.41;10433002;28;20670;-64
2023/11/28 02:28:30;;;;;;;2.55;1.60;;;;;;;2.10;66.00;97603.78;10415740;28;20049;-64
2023/11/28 02:33:32;;;;;;;3.17;1.70;;;;;;;2.12;65.96;97610.50;10416216;28;20409;-64
2023/11/28 02:38:34;;;;;;;4.43;2.03;;;;;;;2.14;65.96;97616.41;10441508;28;20041;-64
2023/11/28 02:43:36;;;;;;;3.80;2.25;;;;;;;2.13;65.87;97627.63;10445898;28;20048;-64
2023/11/28 02:48:43;;;;;;;3.22;1.63;;;;;;;2.13;65.99;97637.13;10410368;28;20460;-65
2023/11/28 02:53:44;;;;;;;6.25;2.33;;;;;;;2.13;65.82;97640.50;10446569;28;20519;-65
2023/11/28 02:58:47;;;;;;;3.35;1.90;;;;;;;2.09;65.86;97641.63;10396300;28;20228;-64
2023/11/28 03:03:49;;;;;;;3.88;2.20;;;;;;;2.11;66.08;97654.44;10429230;28;20048;-65
2023/11/28 03:08:51;;;;;;;3.78;1.98;;;;;;;2.16;65.86;97662.72;10444250;28;20052;-64
2023/11/28 03:13:53;;;;;;;3.15;1.77;;;;;;;2.21;65.80;97660.69;10446038;28;20044;-65
2023/11/28 03:18:55;;;;;;;3.17;1.60;;;;;;;2.22;65.60;97672.63;10445840;28;20053;-64
2023/11/28 03:23:57;;;;;;;3.08;1.52;;;;;;;2.14;65.82;97682.59;10446289;28;20120;-64
2023/11/28 03:28:59;;;;;;;3.15;1.45;;;;;;;2.11;66.01;97677.66;10446363;28;20041;-65
2023/11/28 03:34:03;;;;;;;2.85;1.42;;;;;;;2.03;65.95;97682.44;10445912;28;20045;-64
2023/11/28 03:39:07;;;;;;;2.67;1.55;;;;;;;2.04;66.19;97696.97;10445544;28;20049;-65
2023/11/28 03:44:11;;;;;;;1.63;1.20;;;;;;;2.08;65.99;97707.00;10460154;28;20139;-64
2023/11/28 03:49:13;;;;;;;2.25;1.20;;;;;;;1.99;66.06;97714.50;10441252;28;20489;-64
2023/11/28 03:54:15;;;;;;;1.00;0.90;;;;;;;2.05;66.11;97722.66;10421628;28;20040;-64
2023/11/28 03:59:19;;;;;;;1.60;1.10;;;;;;;2.01;66.01;97744.38;10420101;28;20500;-65
2023/11/28 04:04:21;;;;;;;2.22;0.75;;;;;;;1.92;66.44;97751.84;10404172;28;20187;-64
2023/11/28 04:09:24;;;;;;;1.08;0.70;;;;;;;1.94;66.48;97758.56;10436800;28;20049;-64
2023/11/28 04:14:26;;;;;;;0.93;0.70;;;;;;;2.06;65.85;97765.56;10420152;28;20055;-64
2023/11/28 04:19:28;;;;;;;0.50;0.50;;;;;;;2.08;65.92;97775.78;10418186;28;20424;-65
2023/11/28 04:24:30;;;;;;;0.73;0.70;;;;;;;2.09;66.02;97782.63;10402804;28;20053;-65
2023/11/28 04:29:33;;;;;;;0.82;0.70;;;;;;;2.16;65.87;97794.22;10419321;28;20132;-64
2023/11/28 04:34:36;;;;;;;0.70;0.70;;;;;;;2.10;66.01;97804.88;10419357;28;20162;-64
2023/11/28 04:39:39;;;;;;;0.63;0.63;;;;;;;2.03;66.25;97807.00;10415323;28;20037;-66
2023/11/28 04:44:41;;;;;;;0.93;0.80;;;;;;;1.98;66.25;97824.50;10418200;28;20132;-64
2023/11/28 04:49:43;;;;;;;0.60;0.60;;;;;;;1.95;66.36;97818.69;10415683;28;20135;-65
2023/11/28 04:54:45;;;;;;;0.55;0.55;;;;;;;1.89;66.53;97839.69;10435825;28;20046;-64
2023/11/28 04:59:47;;;;;;;0.85;0.77;;;;;;;1.99;66.52;97845.94;10415394;28;20044;-65
2023/11/28 05:04:49;;;;;;;0.63;0.60;;;;;;;1.75;66.48;97857.66;10435946;28;20041;-64
2023/11/28 05:09:52;;;;;;;0.43;0.43;;;;;;;1.81;66.61;97868.44;10404370;28;20484;-63
2023/11/28 05:14:54;;;;;;;0.52;0.52;;;;;;;1.74;66.41;97876.63;10435160;28;20051;-64
2023/11/28 05:19:56;;;;;;;0.38;0.38;;;;;;;1.66;66.53;97896.84;10416367;28;20504;-64
2023/11/28 05:24:59;;;;;;;0.60;0.60;;;;;;;1.64;66.54;97907.25;10417637;28;20385;-64
2023/11/28 05:30:01;;;;;;;0.40;0.40;;;;;;;1.65;66.59;97920.94;10435619;28;20107;-64
2023/11/28 05:35:05;;;;;;;0.52;0.52;;;;;;;1.67;66.06;97931.97;10415998;28;20041;-64
2023/11/28 05:40:09;;;;;;;0.90;0.90;;;;;;;1.63;66.45;97941.63;10435414;28;20127;-64
2023/11/28 05:45:12;;;;;;;0.68;0.68;;;;;;;1.65;66.40;97960.41;10415046;28;20049;-65
2023/11/28 05:50:15;;;;;;;0.90;0.85;;;;;;;1.62;66.40;97965.75;10414183;28;20061;-64
2023/11/28 05:55:20;;;;;;;0.70;0.70;;;;;;;1.60;66.21;97972.72;10400219;28;20055;-64
2023/11/28 06:00:23;;;;;;;2.03;1.02;;;;;;;1.49;66.47;97979.34;10415907;28;20056;-64
2023/11/28 06:05:25;;;;;;;0.60;0.60;;;;;;;1.38;66.44;98003.94;10415525;28;20084;-64
2023/11/28 06:10:27;;;;;;;0.80;0.80;;;;;;;1.57;66.29;98006.38;10400681;28;20518;-64
2023/11/28 06:15:29;;;;;;;0.60;0.60;;;;;;;1.48;66.15;98021.50;10412498;28;20135;-65
2023/11/28 06:20:31;;;;;;;0.70;0.70;;;;;;;1.40;65.92;98031.38;10415062;28;20053;-65
2023/11/28 06:25:33;;;;;;;0.60;0.60;;;;;;;1.51;66.11;98053.06;10411470;28;20566;-65
2023/11/28 06:30:35;;;;;;;0.77;0.77;;;;;;;1.54;65.70;98064.97;10433402;28;20408;-65
2023/11/28 06:35:38;;;;;;;0.63;0.63;;;;;;;1.43;65.69;98086.13;10431756;28;20530;-65
2023/11/28 06:40:40;;;;;;;0.82;0.82;;;;;;;1.45;65.72;98091.19;10433213;28;20044;-64
2023/11/28 06:45:42;;;;;;;1.05;0.82;;;;;;;1.51;65.37;98107.16;10446508;28;20064;-65
2023/11/28 06:50:44;;;;;;;0.75;0.75;;;;;;;1.49;65.50;98127.03;10414965;28;20136;-64
2023/11/28 06:55:46;;;;;;;0.98;0.80;;;;;;;1.46;65.49;98141.81;10428492;28;20705;-66
2023/11/28 07:00:48;;;;;;;1.15;1.00;;;;;;;1.42;64.81;98160.91;10427364;28;20108;-65
2023/11/28 07:05:55;;;;;;;1.45;1.00;;;;;;;1.41;65.33;98165.22;10427846;28;20080;-65
2023/11/28 07:10:57;;;;;;;0.95;0.90;;;;;;;1.28;65.45;98177.88;10439959;28;20045;-65
2023/11/28 07:15:59;;;;;;;1.10;1.00;;;;;;;1.29;65.72;98192.44;10411310;28;20056;-65
2023/11/28 07:21:02;;;;;;;0.98;0.90;;;;;;;1.28;65.38;98215.66;10428776;28;20029;-65
2023/11/28 07:26:04;;;;;;;1.33;1.02;;;;;;;1.40;64.90;98224.53;10430256;28;20051;-65
2023/11/28 07:31:07;;;;;;;1.08;0.98;;;;;;;1.52;64.91;98236.81;10436180;28;20038;-65
2023/11/28 07:36:12;;;;;;;1.30;1.20;;;;;;;1.59;64.50;98256.19;10436452;28;20051;-65
2023/11/28 07:41:15;;;;;;;0.90;0.90;;;;;;;1.60;64.42;98261.28;10418175;28;20538;-65
2023/11/28 07:46:18;;;;;;;1.38;0.90;;;;;;;1.65;64.63;98274.75;10438465;28;20056;-64
2023/11/28 07:51:20;;;;;;;0.98;0.90;;;;;;;1.78;64.04;98293.84;10420098;28;20701;-64
2023/11/28 07:56:22;;;;;;;1.80;1.10;;;;;;;1.83;64.17;98312.47;10438110;28;20053;-64
2023/11/28 08:01:24;;;;;;;1.48;1.10;;;;;;;1.83;63.88;98319.38;10437733;28;20041;-65
2023/11/28 08:06:26;;;;;;;0.90;0.90;;;;;;;1.71;63.65;98320.84;10414632;28;20076;-65
2023/11/28 08:11:28;;;;;;;0.80;0.80;;;;;;;1.58;63.81;98332.66;10429871;28;20382;-65
2023/11/28 08:16:30;;;;;;;1.08;0.93;;;;;;;1.57;64.13;98345.59;10437448;28;20048;-64
2023/11/28 08:21:32;;;;;;;1.10;0.88;;;;;;;1.67;64.05;98357.13;10437395;28;20055;-64
2023/11/28 08:26:34;;;;;;;1.77;1.30;;;;;;;1.86;63.72;98373.38;10439556;28;20146;-64
2023/11/28 08:31:36;;;;;;;1.27;0.98;;;;;;;1.95;63.69;98378.88;10437665;28;20049;-64
2023/11/28 08:36:43;;;;;;;1.15;1.00;;;;;;;2.03;62.61;98402.53;10436701;28;20049;-64
2023/11/28 08:41:45;;;;;;;2.00;1.20;;;;;;;2.06;62.24;98411.88;10435924;28;20094;-65
2023/11/28 08:46:48;;;;;;;1.38;1.15;;;;;;;2.35;62.82;98418.16;10433820;28;20115;-65
2023/11/28 08:51:51;;;;;;;1.50;1.08;;;;;;;2.39;62.08;98433.41;10432296;28;20037;-65
2023/11/28 08:56:53;;;;;;;2.50;1.15;;;;;;;2.47;62.34;98445.91;10407043;28;20072;-65
2023/11/28 09:01:56;;;;;;;2.90;1.30;;;;;;;2.50;61.99;98446.59;10428496;28;20128;-65
2023/11/28 09:06:58;;;;;;;1.65;1.25;;;;;;;2.52;62.41;98469.75;10432971;28;20049;-65
2023/11/28 09:12:00;;;;;;;1.33;1.23;;;;;;;2.28;60.73;98464.06;10433429;28;20076;-64
2023/11/28 09:17:02;;;;;;;2.72;1.70;;;;;;;2.32;62.15;98481.06;10432218;28;20167;-64
2023/11/28 09:22:05;;;;;;;1.95;1.27;;;;;;;2.48;62.21;98494.88;10432141;28;20045;-65
2023/11/28 09:27:07;;;;;;;1.80;1.40;;;;;;;2.74;61.98;98511.63;10432328;28;20343;-65
2023/11/28 09:32:10;;;;;;;1.73;1.30;;;;;;;3.14;61.22;98520.75;10431159;28;20059;-65
2023/11/28 09:37:12;;;;;;;2.55;1.30;;;;;;;3.34;61.02;98529.13;10430488;28;20131;-65
2023/11/28 09:42:15;;;;;;;2.05;1.38;;;;;;;3.56;60.51;98526.22;10431641;28;20048;-67
2023/11/28 09:47:20;;;;;;;2.58;1.40;;;;;;;3.50;59.75;98539.47;10430446;28;20041;-67
2023/11/28 09:52:23;;;;;;;2.40;1.35;;;;;;;3.21;60.33;98547.94;10430688;28;20064;-68
2023/11/28 09:57:32;;;;;;;2.88;1.73;;;;;;;3.12;60.63;98553.56;10409559;28;20411;-67
2023/11/28 10:02:34;;;;;;;1.50;1.25;;;;;;;3.02;60.75;98561.81;10430659;28;20059;-67
2023/11/28 10:07:42;;;;;;;2.50;1.50;;;;;;;2.98;60.28;98562.88;10429414;28;20053;-67
2023/11/28 10:12:44;;;;;;;2.85;1.63;;;;;;;2.96;60.22;98569.88;10430464;28;20045;-67
2023/11/28 10:17:46;;;;;;;4.88;1.75;;;;;;;3.01;60.39;98585.09;10429417;28;20061;-67
2023/11/28 10:22:51;;;;;;;2.38;1.52;;;;;;;2.86;60.33;98591.06;10432390;28;20054;-67
2023/11/28 10:27:58;;;;;;;2.83;1.73;;;;;;;2.61;60.75;98608.66;10429834;28;20076;-67
2023/11/28 10:33:01;;;;;;;3.15;1.65;;;;;;;2.75;60.07;98613.97;10428514;28;20281;-68
2023/11/28 10:38:03;;;;;;;2.85;1.50;;;;;;;2.70;59.77;98623.69;10441842;28;20765;-67
2023/11/28 10:43:07;;;;;;;3.35;1.50;;;;;;;2.65;58.42;98631.66;10428931;28;20048;-67
2023/11/28 10:48:09;;;;;;;2.42;1.38;;;;;;;2.51;58.59;98638.38;10428413;28;20049;-67
2023/11/28 10:53:16;;;;;;;2.53;1.55;;;;;;;2.53;59.17;98644.31;10394409;28;20187;-67
2023/11/28 10:58:20;;;;;;;5.80;1.85;;;;;;;2.47;59.04;98650.59;10411003;28;20045;-67
2023/11/28 11:03:25;;;;;;;2.42;1.70;;;;;;;2.51;59.51;98665.03;10437578;28;20053;-67
2023/11/28 11:08:28;;;;;;;2.33;1.60;;;;;;;2.63;59.66;98661.03;10436585;28;20049;-67
2023/11/28 11:13:39;;;;;;;1.77;1.33;;;;;;;2.60;59.36;98663.78;10433215;28;20508;-67
2023/11/28 11:18:44;;;;;;;1.57;1.23;;;;;;;2.20;58.50;98681.09;10433077;28;20302;-67
2023/11/28 11:23:51;;;;;;;2.53;1.40;;;;;;;2.33;59.21;98696.84;10436095;28;20495;-67
2023/11/28 11:28:56;;;;;;;3.42;1.60;;;;;;;2.52;58.20;98700.25;10435073;28;20456;-67
2023/11/28 11:33:59;;;;;;;2.22;1.02;;;;;;;2.74;58.34;98711.25;10401177;28;20052;-68
2023/11/28 11:39:17;;;;;;;2.45;1.20;;;;;;;2.54;53.90;98708.75;10399720;28;20057;-68
2023/11/28 11:44:20;;;;;;;2.67;1.35;;;;;;;2.85;57.53;98714.13;10437347;28;20068;-68
2023/11/28 11:49:22;;;;;;;1.85;1.35;;;;;;;2.65;56.48;98718.56;10429671;28;20488;-68
2023/11/28 11:54:24;;;;;;;2.08;1.15;;;;;;;2.48;56.48;98732.25;10435932;28;20036;-68
2023/11/28 11:59:27;;;;;;;1.70;1.15;;;;;;;2.36;56.00;98737.97;10434063;28;20041;-68
2023/11/28 12:04:29;;;;;;;1.65;1.10;;;;;;;2.23;56.15;98735.13;10403511;28;20292;-67
2023/11/28 12:09:35;;;;;;;1.60;1.27;;;;;;;2.41;56.64;98751.53;10435929;28;20578;-67
2023/11/28 12:14:37;;;;;;;1.02;0.88;;;;;;;2.60;56.95;98757.50;10419589;28;20370;-68
2023/11/28 12:19:39;;;;;;;1.35;1.17;;;;;;;2.79;56.83;98766.06;10437696;28;20148;-68
2023/11/28 12:24:41;;;;;;;1.65;1.13;;;;;;;2.74;56.17;98767.19;10434463;28;20136;-67
2023/11/28 12:29:43;;;;;;;1.60;1.05;;;;;;;2.69;56.33;98770.00;10435355;28;20090;-68
2023/11/28 12:34:46;;;;;;;1.63;1.20;;;;;;;2.56;55.97;98786.94;10449570;28;20136;-68
2023/11/28 12:39:53;;;;;;;2.05;1.23;;;;;;;2.49;56.03;98795.03;10434714;28;20132;-67
2023/11/28 12:44:57;;;;;;;1.25;1.00;;;;;;;2.45;56.24;98814.97;10430516;28;20049;-68
2023/11/28 12:50:00;;;;;;;2.08;1.20;;;;;;;2.20;55.60;98824.69;10433936;28;20877;-68
2023/11/28 12:55:03;;;;;;;1.25;0.95;;;;;;;1.91;54.69;98833.69;10443258;28;20040;-68
2023/11/28 13:00:06;;;;;;;1.10;1.00;;;;;;;2.05;56.04;98835.69;10426961;28;20313;-68
2023/11/28 13:05:08;;;;;;;1.10;1.00;;;;;;;1.95;54.85;98845.53;10413691;28;20405;-68
2023/11/28 13:10:10;;;;;;;1.10;0.90;;;;;;;1.94;54.65;98850.75;10434481;28;20045;-67
2023/11/28 13:15:15;;;;;;;1.63;1.10;;;;;;;2.09;54.92;98857.88;10433396;28;20408;-67
2023/11/28 13:20:21;;;;;;;1.38;1.10;;;;;;;2.12;54.95;98863.72;10417085;28;20136;-67
2023/11/28 13:25:23;;;;;;;1.80;1.23;;;;;;;2.11;54.86;98864.59;10435376;28;20048;-67
2023/11/28 13:30:26;;;;;;;1.27;1.08;;;;;;;2.25;54.87;98871.78;10435534;28;20122;-67
2023/11/28 13:35:29;;;;;;;1.20;0.90;;;;;;;2.16;55.12;98872.16;10435103;28;20512;-68
2023/11/28 13:40:31;;;;;;;1.10;1.00;;;;;;;2.04;55.58;98880.41;10433110;28;20044;-67
2023/11/28 13:45:33;;;;;;;2.42;1.20;;;;;;;2.19;55.66;98880.59;10434668;28;20053;-67
2023/11/28 13:50:37;;;;;;;2.20;1.20;;;;;;;2.20;56.05;98891.75;10414303;28;20135;-68
2023/11/28 13:55:41;;;;;;;2.72;1.20;;;;;;;2.26;55.82;98901.81;10434007;28;20494;-67
2023/11/28 14:00:43;;;;;;;3.00;1.33;;;;;;;2.10;56.14;98914.53;10423976;28;20045;-68
2023/11/28 14:05:46;;;;;;;1.95;1.27;;;;;;;1.90;56.21;98926.56;10412684;28;20053;-68
2023/11/28 14:10:48;;;;;;;2.20;1.35;;;;;;;1.78;56.48;98932.22;10427704;28;20482;-68
2023/11/28 14:15:50;;;;;;;2.08;1.13;;;;;;;1.61;56.93;98945.75;10405273;28;20597;-68
2023/11/28 14:20:53;;;;;;;2.35;1.40;;;;;;;1.63;56.61;98956.84;10428202;28;20406;-68
2023/11/28 14:25:55;;;;;;;2.38;1.33;;;;;;;1.80;56.79;98974.22;10429272;28;20511;-68
2023/11/28 14:30:58;;;;;;;1.48;1.00;;;;;;;1.49;55.09;98973.75;10444172;28;20190;-68
2023/11/28 14:36:00;;;;;;;2.80;1.58;;;;;;;1.26;56.44;98972.88;10427331;28;20511;-68
2023/11/28 14:41:03;;;;;;;2.22;1.48;;;;;;;1.40;56.58;98987.81;10410494;28;20044;-68
2023/11/28 14:46:05;;;;;;;1.65;1.30;;;;;;;1.58;56.52;99000.00;10374562;28;20057;-69
2023/11/28 14:51:08;;;;;;;1.48;1.10;;;;;;;1.64;56.30;99009.25;10409292;28;20052;-68
2023/11/28 14:56:10;;;;;;;1.38;1.20;;;;;;;1.60;56.70;99012.84;10428901;28;20060;-68
2023/11/28 15:01:12;;;;;;;1.40;1.10;;;;;;;1.63;57.45;99020.44;10424899;28;20036;-68
2023/11/28 15:06:14;;;;;;;2.80;1.60;;;;;;;1.51;57.29;99029.47;10411355;28;20097;-68
2023/11/28 15:11:17;;;;;;;2.17;1.30;;;;;;;1.54;57.21;99031.09;10429782;28;20127;-68
2023/11/28 15:16:28;;;;;;;3.08;1.30;;;;;;;1.53;56.70;99032.84;10428668;28;20049;-68
2023/11/28 15:21:30;;;;;;;4.57;1.63;;;;;;;1.58;57.46;99045.56;10429623;28;20036;-68
2023/11/28 15:26:32;;;;;;;3.40;1.60;;;;;;;1.58;57.63;99041.25;10430250;28;20372;-68
2023/11/28 15:31:34;;;;;;;2.22;1.38;;;;;;;1.57;58.13;99059.31;10428507;28;20134;-68
2023/11/28 15:36:36;;;;;;;2.63;1.65;;;;;;;1.60;58.38;99054.06;10429170;28;20766;-68
2023/11/28 15:41:38;;;;;;;2.55;1.70;;;;;;;1.46;58.34;99061.47;10428893;28;20041;-68
2023/11/28 15:46:43;;;;;;;2.08;1.55;;;;;;;1.42;58.82;99070.19;10415368;28;20827;-68
2023/11/28 15:51:45;;;;;;;3.35;1.92;;;;;;;1.45;59.29;99062.34;10434399;28;20124;-68
2023/11/28 15:56:48;;;;;;;2.45;1.10;;;;;;;1.50;59.14;99070.75;10418344;28;20143;-68
2023/11/28 16:01:50;;;;;;;1.80;1.23;;;;;;;1.54;59.18;99064.59;10428477;28;20452;-68
2023/11/28 16:06:54;;;;;;;3.00;1.42;;;;;;;1.53;58.88;99074.06;10431381;28;20041;-68
2023/11/28 16:11:56;;;;;;;2.20;1.13;;;;;;;1.51;59.34;99075.00;10432309;28;20041;-68
2023/11/28 16:16:59;;;;;;;2.20;1.35;;;;;;;1.53;59.54;99078.38;10432232;28;20048;-69
2023/11/28 16:22:01;;;;;;;2.88;1.63;;;;;;;1.58;59.55;99079.03;10435049;28;20485;-68
2023/11/28 16:27:03;;;;;;;2.33;1.55;;;;;;;1.52;60.20;99093.00;10431730;28;20050;-68
2023/11/28 16:32:05;;;;;;;2.47;1.60;;;;;;;1.46;60.61;99087.22;10428652;28;20037;-68
2023/11/28 16:37:07;;;;;;;3.95;1.52;;;;;;;1.33;60.98;99085.09;10407639;28;20045;-69
2023/11/28 16:42:11;;;;;;;4.20;1.80;;;;;;;1.21;61.12;99082.97;10426230;28;20049;-69
2023/11/28 16:47:14;;;;;;;4.85;1.65;;;;;;;1.15;61.33;99087.47;10430862;28;20318;-69
2023/11/28 16:52:16;;;;;;;2.78;1.50;;;;;;;1.03;61.37;99087.91;10426407;28;20364;-69
2023/11/28 16:57:20;;;;;;;2.70;1.70;;;;;;;1.14;61.37;99091.78;10419680;28;20524;-69
2023/11/28 17:02:22;;;;;;;2.65;1.52;;;;;;;1.16;61.40;99096.88;10411985;28;20045;-69
2023/11/28 17:07:24;;;;;;;3.50;1.38;;;;;;;1.16;61.29;99089.16;10433994;28;20051;-68
2023/11/28 17:12:27;;;;;;;2.53;1.60;;;;;;;1.19;61.29;99086.47;10432901;28;20268;-69
2023/11/28 17:17:29;;;;;;;2.35;1.48;;;;;;;1.11;61.16;99094.47;10429729;28;20312;-69
2023/11/28 17:22:33;;;;;;;2.45;1.38;;;;;;;1.12;61.62;99092.72;10446979;28;20139;-70
2023/11/28 17:27:35;;;;;;;2.28;1.60;;;;;;;1.13;61.74;99084.97;10431418;28;20399;-67
2023/11/28 17:32:38;;;;;;;4.28;2.45;;;;;;;1.18;61.83;99087.34;10430745;28;20445;-69
2023/11/28 17:37:41;;;;;;;7.65;2.55;;;;;;;1.10;61.61;99087.63;10413635;28;20063;-69
2023/11/28 17:42:43;;;;;;;4.60;1.92;;;;;;;1.09;61.78;99098.00;10430454;28;20459;-69
2023/11/28 17:47:48;;;;;;;2.58;1.83;;;;;;;0.94;62.12;99096.78;10431417;28;20049;-69
2023/11/28 17:52:50;;;;;;;2.90;1.55;;;;;;;0.92;62.49;99096.00;10430187;28;20041;-69
2023/11/28 17:57:53;;;;;;;2.53;1.60;;;;;;;0.97;62.37;99088.94;10430387;28;20421;-69
2023/11/28 18:02:55;;;;;;;3.28;1.70;;;;;;;1.01;62.56;99103.41;10430544;28;20051;-70
2023/11/28 18:07:57;;;;;;;4.35;1.98;;;;;;;1.06;62.27;99106.66;10426247;28;20049;-69
2023/11/28 18:13:01;;;;;;;2.95;1.73;;;;;;;1.03;62.38;99123.97;10409031;28;20489;-69
2023/11/28 18:18:03;;;;;;;3.45;1.85;;;;;;;0.89;62.02;99114.09;10427749;28;20099;-70
2023/11/28 18:23:05;;;;;;;3.10;1.80;;;;;;;0.80;62.62;99122.16;10428478;28;20041;-70
2023/11/28 18:28:07;;;;;;;3.40;1.88;;;;;;;0.69;62.27;99107.97;10425789;28;20045;-69
2023/11/28 18:33:09;;;;;;;4.57;2.08;;;;;;;0.64;62.81;99108.13;10430168;28;20612;-70
2023/11/28 18:38:11;;;;;;;3.58;1.90;;;;;;;0.65;62.77;99099.47;10408364;28;20552;-70
2023/11/28 18:43:13;;;;;;;3.30;1.83;;;;;;;0.65;62.84;99101.25;10420453;28;20059;-69
2023/11/28 18:48:15;;;;;;;2.97;2.00;;;;;;;0.58;63.07;99094.59;10442197;28;20318;-69
2023/11/28 18:53:18;;;;;;;5.20;2.05;;;;;;;0.56;63.06;99101.53;10428436;28;20465;-69
2023/11/28 18:58:20;;;;;;;3.67;2.08;;;;;;;0.46;63.01;99103.56;10428848;28;20532;-70
2023/11/28 19:03:21;;;;;;;3.30;1.85;;;;;;;0.32;63.06;99108.31;10426322;28;20287;-70
2023/11/28 19:08:24;;;;;;;5.35;3.05;;;;;;;0.22;63.28;99123.16;10424499;28;20045;-70
2023/11/28 19:13:26;;;;;;;5.57;2.50;;;;;;;0.14;63.65;99143.13;10422877;28;20087;-70
2023/11/28 19:18:28;;;;;;;5.55;2.60;;;;;;;0.07;63.67;99138.22;10424271;28;20049;-69
2023/11/28 19:23:30;;;;;;;3.97;2.00;;;;;;;0.26;63.94;99137.59;10435540;28;20441;-70
2023/11/28 19:28:32;;;;;;;3.67;2.00;;;;;;;0.44;63.62;99142.19;10436706;28;20489;-69
2023/11/28 19:33:34;;;;;;;3.33;1.88;;;;;;;0.53;63.34;99144.47;10434640;28;20174;-70
2023/11/28 19:38:38;;;;;;;4.22;2.40;;;;;;;0.50;63.61;99151.44;10434475;28;20489;-69
2023/11/28 19:43:40;;;;;;;4.15;2.30;;;;;;;0.56;63.45;99138.41;10435630;28;20068;-70
2023/11/28 19:48:43;;;;;;;4.15;2.20;;;;;;;0.41;63.34;99144.84;10433187;28;20115;-70
2023/11/28 19:53:45;;;;;;;4.20;2.40;;;;;;;0.26;63.64;99144.50;10430529;28;20299;-70
2023/11/28 19:58:47;;;;;;;4.60;2.78;;;;;;;0.17;63.99;99144.78;10414425;28;20860;-70
2023/11/28 20:03:49;;;;;;;5.50;3.08;;;;;;;0.21;63.98;99136.94;10433299;28;20540;-70
2023/11/28 20:08:51;;;;;;;5.18;2.53;;;;;;;0.24;64.05;99136.00;10426638;28;20037;-69
2023/11/28 20:13:53;;;;;;;5.07;2.33;;;;;;;0.35;63.82;99144.19;10432461;28;20037;-69
2023/11/28 20:18:56;;;;;;;4.03;2.22;;;;;;;0.27;64.04;99138.47;10424511;28;20106;-69
2023/11/28 20:23:57;;;;;;;4.45;2.17;;;;;;;0.24;64.11;99141.13;10412314;28;20037;-70
2023/11/28 20:28:59;;;;;;;5.28;2.40;;;;;;;0.29;64.25;99145.25;10414754;28;20038;-68
2023/11/28 20:34:01;;;;;;;6.18;2.42;;;;;;;0.27;64.31;99146.16;10426094;28;20589;-69
2023/11/28 20:39:09;;;;;;;4.63;2.65;;;;;;;0.24;64.50;99154.00;10431959;28;20049;-69
2023/11/28 20:44:12;;;;;;;5.47;2.95;;;;;;;0.31;64.34;99150.34;10434121;28;20057;-69
2023/11/28 20:49:14;;;;;;;7.68;3.50;;;;;;;0.45;64.26;99143.03;10430319;28;20065;-69
2023/11/28 20:54:17;;;;;;;5.38;3.03;;;;;;;0.66;63.91;99144.06;10414535;28;20486;-69
2023/11/28 20:59:19;;;;;;;5.32;2.92;;;;;;;0.77;63.83;99137.69;10433744;28;20041;-70
2023/11/28 21:04:21;;;;;;;5.28;2.70;;;;;;;0.75;63.58;99134.31;10413827;28;20073;-69
2023/11/28 21:09:24;;;;;;;3.78;2.58;;;;;;;0.76;63.67;99135.16;10413661;28;20447;-69
2023/11/28 21:14:26;;;;;;;4.93;2.53;;;;;;;0.68;63.63;99137.16;10409858;28;20140;-69
2023/11/28 21:19:28;;;;;;;5.97;2.60;;;;;;;0.68;63.48;99137.16;10409043;28;20057;-69
2023/11/28 21:24:30;;;;;;;6.10;2.85;;;;;;;0.52;63.50;99129.09;10411740;28;20047;-69
2023/11/28 21:29:34;;;;;;;3.65;2.60;;;;;;;0.34;63.32;99121.97;10443929;28;20773;-69
2023/11/28 21:34:36;;;;;;;5.32;2.83;;;;;;;0.11;63.52;99120.09;10429985;28;20076;-69
2023/11/28 21:39:38;;;;;;;5.13;2.70;;;;;;;-0.12;63.81;99111.38;10430672;28;20037;-69
2023/11/28 21:44:41;;;;;;;4.55;2.30;;;;;;;-0.35;64.19;99119.75;10430111;28;20059;-69
2023/11/28 21:49:49;;;;;;;4.40;2.78;;;;;;;-0.55;64.33;99119.47;10405015;28;20489;-69
2023/11/28 21:54:51;;;;;;;6.38;2.67;;;;;;;-0.68;64.73;99126.72;10445098;28;20339;-69
2023/11/28 21:59:53;;;;;;;5.05;3.30;;;;;;;-0.80;64.88;99137.28;10430391;28;20052;-68
2023/11/28 22:04:55;;;;;;;6.93;3.50;;;;;;;-0.92;65.39;99140.16;10428723;28;20052;-68
2023/11/28 22:09:57;;;;;;;6.72;3.40;;;;;;;-0.92;65.22;99142.72;10412692;28;20134;-69
2023/11/28 22:14:59;;;;;;;6.57;3.45;;;;;;;-0.94;65.30;99134.22;10410569;28;20041;-69
2023/11/28 22:20:01;;;;;;;5.00;2.80;;;;;;;-0.91;65.18;99139.31;10429500;28;20497;-69
2023/11/28 22:25:04;;;;;;;5.13;2.80;;;;;;;-0.95;65.29;99153.09;10430319;28;20455;-69
2023/11/28 22:30:06;;;;;;;5.78;2.63;;;;;;;-1.00;65.40;99148.97;10410093;28;20587;-68
2023/11/28 22:35:09;;;;;;;5.85;2.95;;;;;;;-1.00;65.19;99144.66;10405083;28;20136;-68
2023/11/28 22:40:11;;;;;;;4.65;2.97;;;;;;;-1.05;65.21;99128.56;10428380;28;20049;-68
2023/11/28 22:45:13;;;;;;;4.72;2.83;;;;;;;-1.15;65.24;99115.09;10427855;28;20052;-69
2023/11/28 22:50:15;;;;;;;6.55;3.63;;;;;;;-1.21;65.44;99120.38;10410692;28;20373;-69
2023/11/28 22:55:17;;;;;;;6.55;2.92;;;;;;;-1.25;65.38;99126.47;10429299;28;20107;-69
2023/11/28 23:00:21;;;;;;;5.88;3.00;;;;;;;-1.25;65.31;99123.09;10401472;28;20056;-69
2023/11/28 23:05:24;;;;;;;5.47;3.08;;;;;;;-1.26;65.41;99118.81;10437873;28;20060;-70
2023/11/28 23:10:26;;;;;;;5.72;2.88;;;;;;;-1.27;65.25;99119.72;10439028;28;20040;-69
2023/11/28 23:15:29;;;;;;;5.88;2.50;;;;;;;-1.34;65.20;99113.91;10419763;28;20041;-69
2023/11/28 23:20:31;;;;;;;4.20;2.58;;;;;;;-1.37;65.20;99110.56;10419811;28;20558;-68
2023/11/28 23:25:33;;;;;;;5.82;2.97;;;;;;;-1.45;65.41;99089.41;10437421;28;20147;-69
2023/11/28 23:30:35;;;;;;;4.65;2.70;;;;;;;-1.46;65.35;99096.25;10436994;28;20465;-69
2023/11/28 23:35:37;;;;;;;3.92;2.55;;;;;;;-1.53;65.31;99081.88;10420790;28;20292;-68
2023/11/28 23:40:39;;;;;;;4.57;2.53;;;;;;;-1.54;65.08;99087.06;10438530;28;20493;-68